sensor_id;sensor_type;location;lat;lon;timestamp;P1;durP1;ratioP1;P2;durP2;ratioP2
64894;SDS011;51588;53.702;10.208;2023-05-08T00:00:48;2.40;;;2.20;;
64894;SDS011;51588;53.702;10.208;2023-05-08T00:03:15;2.10;;;2.00;;
64894;SDS011;51588;53.702;10.208;2023-05-08T00:05:41;1.90;;;1.80;;
64894;SDS011;51588;53.702;10.208;2023-05-08T00:08:08;2.13;;;1.93;;
64894;SDS011;51588;53.702;10.208;2023-05-08T00:10:34;2.17;;;1.97;;
64894;SDS011;51588;53.702;10.208;2023-05-08T00:13:01;3.43;;;2.40;;
64894;SDS011;51588;53.702;10.208;2023-05-08T00:15:27;1.50;;;1.40;;
64894;SDS011;51588;53.702;10.208;2023-05-08T00:17:55;1.83;;;1.73;;
64894;SDS011;51588;53.702;10.208;2023-05-08T00:20:21;2.00;;;1.90;;
64894;SDS011;51588;53.702;10.208;2023-05-08T00:22:47;3.00;;;2.00;;
64894;SDS011;51588;53.702;10.208;2023-05-08T00:25:14;2.50;;;1.80;;
64894;SDS011;51588;53.702;10.208;2023-05-08T00:27:40;2.20;;;2.00;;
64894;SDS011;51588;53.702;10.208;2023-05-08T00:30:07;2.10;;;1.90;;
64894;SDS011;51588;53.702;10.208;2023-05-08T00:32:33;2.40;;;2.20;;
64894;SDS011;51588;53.702;10.208;2023-05-08T00:35:01;2.33;;;2.13;;
64894;SDS011;51588;53.702;10.208;2023-05-08T00:37:28;2.27;;;1.90;;
64894;SDS011;51588;53.702;10.208;2023-05-08T00:39:54;2.10;;;2.00;;
64894;SDS011;51588;53.702;10.208;2023-05-08T00:42:20;1.80;;;1.70;;
64894;SDS011;51588;53.702;10.208;2023-05-08T00:44:47;2.30;;;2.03;;
64894;SDS011;51588;53.702;10.208;2023-05-08T00:47:13;2.40;;;2.10;;
64894;SDS011;51588;53.702;10.208;2023-05-08T00:49:40;2.00;;;1.90;;
64894;SDS011;51588;53.702;10.208;2023-05-08T00:52:08;2.67;;;2.47;;
64894;SDS011;51588;53.702;10.208;2023-05-08T00:54:35;2.17;;;1.93;;
64894;SDS011;51588;53.702;10.208;2023-05-08T00:57:02;1.90;;;1.80;;
64894;SDS011;51588;53.702;10.208;2023-05-08T00:59:29;2.30;;;2.10;;
64894;SDS011;51588;53.702;10.208;2023-05-08T01:01:55;2.30;;;2.10;;
64894;SDS011;51588;53.702;10.208;2023-05-08T01:04:23;1.97;;;1.70;;
64894;SDS011;51588;53.702;10.208;2023-05-08T01:06:50;2.13;;;2.03;;
64894;SDS011;51588;53.702;10.208;2023-05-08T01:09:17;2.50;;;2.30;;
64894;SDS011;51588;53.702;10.208;2023-05-08T01:11:46;2.00;;;1.90;;
64894;SDS011;51588;53.702;10.208;2023-05-08T01:14:15;2.73;;;2.10;;
64894;SDS011;51588;53.702;10.208;2023-05-08T01:16:43;2.43;;;2.13;;
64894;SDS011;51588;53.702;10.208;2023-05-08T01:19:15;2.10;;;2.00;;
64894;SDS011;51588;53.702;10.208;2023-05-08T01:21:48;2.10;;;1.90;;
64894;SDS011;51588;53.702;10.208;2023-05-08T01:24:33;2.00;;;1.90;;
64894;SDS011;51588;53.702;10.208;2023-05-08T01:27:15;2.40;;;1.90;;
64894;SDS011;51588;53.702;10.208;2023-05-08T01:30:03;2.77;;;2.40;;
64894;SDS011;51588;53.702;10.208;2023-05-08T01:32:36;2.17;;;1.90;;
64894;SDS011;51588;53.702;10.208;2023-05-08T01:35:07;2.67;;;2.33;;
64894;SDS011;51588;53.702;10.208;2023-05-08T01:37:40;2.20;;;2.00;;
64894;SDS011;51588;53.702;10.208;2023-05-08T01:40:09;2.40;;;2.20;;
64894;SDS011;51588;53.702;10.208;2023-05-08T01:42:43;2.17;;;1.97;;
64894;SDS011;51588;53.702;10.208;2023-05-08T01:45:11;2.30;;;2.10;;
64894;SDS011;51588;53.702;10.208;2023-05-08T01:47:40;2.03;;;1.93;;
64894;SDS011;51588;53.702;10.208;2023-05-08T01:50:10;2.20;;;2.00;;
64894;SDS011;51588;53.702;10.208;2023-05-08T01:52:41;2.40;;;2.20;;
64894;SDS011;51588;53.702;10.208;2023-05-08T01:55:08;2.50;;;1.80;;
64894;SDS011;51588;53.702;10.208;2023-05-08T01:57:40;2.40;;;2.20;;
64894;SDS011;51588;53.702;10.208;2023-05-08T02:00:09;2.27;;;2.07;;
64894;SDS011;51588;53.702;10.208;2023-05-08T02:02:35;2.70;;;2.43;;
64894;SDS011;51588;53.702;10.208;2023-05-08T02:05:04;2.40;;;2.20;;
64894;SDS011;51588;53.702;10.208;2023-05-08T02:07:31;2.30;;;2.10;;
64894;SDS011;51588;53.702;10.208;2023-05-08T02:09:59;2.67;;;2.20;;
64894;SDS011;51588;53.702;10.208;2023-05-08T02:12:27;2.80;;;2.20;;
64894;SDS011;51588;53.702;10.208;2023-05-08T02:14:54;2.10;;;1.90;;
64894;SDS011;51588;53.702;10.208;2023-05-08T02:17:21;2.10;;;2.00;;
64894;SDS011;51588;53.702;10.208;2023-05-08T02:19:48;2.07;;;1.97;;
64894;SDS011;51588;53.702;10.208;2023-05-08T02:22:17;2.00;;;1.90;;
64894;SDS011;51588;53.702;10.208;2023-05-08T02:24:44;2.17;;;1.97;;
64894;SDS011;51588;53.702;10.208;2023-05-08T02:27:11;2.20;;;2.07;;
64894;SDS011;51588;53.702;10.208;2023-05-08T02:29:37;2.40;;;2.20;;
64894;SDS011;51588;53.702;10.208;2023-05-08T02:32:04;2.20;;;2.10;;
64894;SDS011;51588;53.702;10.208;2023-05-08T02:34:33;2.40;;;2.20;;
64894;SDS011;51588;53.702;10.208;2023-05-08T02:37:00;2.10;;;2.00;;
64894;SDS011;51588;53.702;10.208;2023-05-08T02:39:29;2.90;;;2.43;;
64894;SDS011;51588;53.702;10.208;2023-05-08T02:41:56;2.87;;;2.23;;
64894;SDS011;51588;53.702;10.208;2023-05-08T02:44:23;3.10;;;2.00;;
64894;SDS011;51588;53.702;10.208;2023-05-08T02:46:52;2.77;;;2.23;;
64894;SDS011;51588;53.702;10.208;2023-05-08T02:49:23;2.20;;;2.00;;
64894;SDS011;51588;53.702;10.208;2023-05-08T02:51:53;2.40;;;2.20;;
64894;SDS011;51588;53.702;10.208;2023-05-08T02:54:22;2.27;;;2.07;;
64894;SDS011;51588;53.702;10.208;2023-05-08T02:56:54;2.13;;;2.00;;
64894;SDS011;51588;53.702;10.208;2023-05-08T02:59:23;2.10;;;2.00;;
64894;SDS011;51588;53.702;10.208;2023-05-08T03:01:57;2.70;;;2.40;;
64894;SDS011;51588;53.702;10.208;2023-05-08T03:04:25;2.50;;;2.20;;
64894;SDS011;51588;53.702;10.208;2023-05-08T03:06:55;2.30;;;2.10;;
64894;SDS011;51588;53.702;10.208;2023-05-08T03:09:23;2.63;;;2.10;;
64894;SDS011;51588;53.702;10.208;2023-05-08T03:11:52;2.30;;;2.03;;
64894;SDS011;51588;53.702;10.208;2023-05-08T03:14:21;2.40;;;2.20;;
64894;SDS011;51588;53.702;10.208;2023-05-08T03:16:49;2.40;;;2.20;;
64894;SDS011;51588;53.702;10.208;2023-05-08T03:19:18;2.20;;;2.07;;
64894;SDS011;51588;53.702;10.208;2023-05-08T03:21:45;2.30;;;2.10;;
64894;SDS011;51588;53.702;10.208;2023-05-08T03:24:12;3.10;;;2.17;;
64894;SDS011;51588;53.702;10.208;2023-05-08T03:26:41;3.13;;;2.37;;
64894;SDS011;51588;53.702;10.208;2023-05-08T03:29:07;2.57;;;2.37;;
64894;SDS011;51588;53.702;10.208;2023-05-08T03:31:35;2.33;;;2.13;;
64894;SDS011;51588;53.702;10.208;2023-05-08T03:34:02;2.53;;;2.33;;
64894;SDS011;51588;53.702;10.208;2023-05-08T03:36:29;2.90;;;2.33;;
64894;SDS011;51588;53.702;10.208;2023-05-08T03:38:56;2.60;;;2.40;;
64894;SDS011;51588;53.702;10.208;2023-05-08T03:41:23;2.20;;;2.03;;
64894;SDS011;51588;53.702;10.208;2023-05-08T03:43:50;2.60;;;2.40;;
64894;SDS011;51588;53.702;10.208;2023-05-08T03:46:16;2.50;;;2.30;;
64894;SDS011;51588;53.702;10.208;2023-05-08T03:48:45;2.40;;;2.20;;
64894;SDS011;51588;53.702;10.208;2023-05-08T03:51:12;2.50;;;2.30;;
64894;SDS011;51588;53.702;10.208;2023-05-08T03:53:38;2.37;;;2.17;;
64894;SDS011;51588;53.702;10.208;2023-05-08T03:56:05;2.20;;;2.03;;
64894;SDS011;51588;53.702;10.208;2023-05-08T03:58:31;2.40;;;2.20;;
64894;SDS011;51588;53.702;10.208;2023-05-08T04:01:00;2.50;;;2.30;;
64894;SDS011;51588;53.702;10.208;2023-05-08T04:03:31;2.60;;;2.40;;
64894;SDS011;51588;53.702;10.208;2023-05-08T04:06:06;2.23;;;2.03;;
64894;SDS011;51588;53.702;10.208;2023-05-08T04:08:38;2.67;;;2.30;;
64894;SDS011;51588;53.702;10.208;2023-05-08T04:11:08;2.20;;;2.00;;
64894;SDS011;51588;53.702;10.208;2023-05-08T04:13:38;2.87;;;2.67;;
64894;SDS011;51588;53.702;10.208;2023-05-08T04:16:06;2.47;;;2.27;;
64894;SDS011;51588;53.702;10.208;2023-05-08T04:18:35;2.40;;;2.20;;
64894;SDS011;51588;53.702;10.208;2023-05-08T04:21:03;2.80;;;2.60;;
64894;SDS011;51588;53.702;10.208;2023-05-08T04:23:30;2.30;;;2.10;;
64894;SDS011;51588;53.702;10.208;2023-05-08T04:25:57;2.20;;;2.00;;
64894;SDS011;51588;53.702;10.208;2023-05-08T04:28:24;2.50;;;2.20;;
64894;SDS011;51588;53.702;10.208;2023-05-08T04:30:51;2.40;;;2.20;;
64894;SDS011;51588;53.702;10.208;2023-05-08T04:33:17;2.60;;;2.40;;
64894;SDS011;51588;53.702;10.208;2023-05-08T04:35:44;2.17;;;1.90;;
64894;SDS011;51588;53.702;10.208;2023-05-08T04:38:12;2.30;;;2.10;;
64894;SDS011;51588;53.702;10.208;2023-05-08T04:40:39;2.40;;;2.10;;
64894;SDS011;51588;53.702;10.208;2023-05-08T04:43:05;2.57;;;2.37;;
64894;SDS011;51588;53.702;10.208;2023-05-08T04:45:31;2.80;;;2.30;;
64894;SDS011;51588;53.702;10.208;2023-05-08T04:47:58;2.50;;;2.30;;
64894;SDS011;51588;53.702;10.208;2023-05-08T04:50:24;3.10;;;2.10;;
64894;SDS011;51588;53.702;10.208;2023-05-08T04:52:50;1.97;;;1.87;;
64894;SDS011;51588;53.702;10.208;2023-05-08T04:55:18;2.43;;;2.23;;
64894;SDS011;51588;53.702;10.208;2023-05-08T04:57:44;2.90;;;2.40;;
64894;SDS011;51588;53.702;10.208;2023-05-08T05:00:11;3.37;;;2.80;;
64894;SDS011;51588;53.702;10.208;2023-05-08T05:02:38;3.00;;;2.20;;
64894;SDS011;51588;53.702;10.208;2023-05-08T05:05:04;2.50;;;2.30;;
64894;SDS011;51588;53.702;10.208;2023-05-08T05:07:31;2.27;;;2.07;;
64894;SDS011;51588;53.702;10.208;2023-05-08T05:09:58;2.33;;;2.13;;
64894;SDS011;51588;53.702;10.208;2023-05-08T05:12:26;2.60;;;2.40;;
64894;SDS011;51588;53.702;10.208;2023-05-08T05:14:52;2.17;;;2.00;;
64894;SDS011;51588;53.702;10.208;2023-05-08T05:17:19;2.40;;;2.20;;
64894;SDS011;51588;53.702;10.208;2023-05-08T05:19:45;2.50;;;2.30;;
64894;SDS011;51588;53.702;10.208;2023-05-08T05:22:12;3.03;;;2.20;;
64894;SDS011;51588;53.702;10.208;2023-05-08T05:24:38;2.83;;;2.60;;
64894;SDS011;51588;53.702;10.208;2023-05-08T05:27:05;2.23;;;2.03;;
64894;SDS011;51588;53.702;10.208;2023-05-08T05:29:33;3.23;;;2.63;;
64894;SDS011;51588;53.702;10.208;2023-05-08T05:32:00;2.80;;;2.60;;
64894;SDS011;51588;53.702;10.208;2023-05-08T05:34:26;3.13;;;2.83;;
64894;SDS011;51588;53.702;10.208;2023-05-08T05:36:53;2.60;;;2.40;;
64894;SDS011;51588;53.702;10.208;2023-05-08T05:39:19;2.93;;;2.60;;
64894;SDS011;51588;53.702;10.208;2023-05-08T05:41:45;2.50;;;2.30;;
64894;SDS011;51588;53.702;10.208;2023-05-08T05:44:12;2.57;;;2.37;;
64894;SDS011;51588;53.702;10.208;2023-05-08T05:46:39;2.90;;;2.60;;
64894;SDS011;51588;53.702;10.208;2023-05-08T05:49:06;2.67;;;2.40;;
64894;SDS011;51588;53.702;10.208;2023-05-08T05:51:32;2.83;;;2.43;;
64894;SDS011;51588;53.702;10.208;2023-05-08T05:53:59;3.30;;;2.80;;
64894;SDS011;51588;53.702;10.208;2023-05-08T05:56:25;2.93;;;2.50;;
64894;SDS011;51588;53.702;10.208;2023-05-08T05:58:51;2.50;;;2.30;;
64894;SDS011;51588;53.702;10.208;2023-05-08T06:01:18;3.30;;;2.80;;
64894;SDS011;51588;53.702;10.208;2023-05-08T06:03:46;2.90;;;2.60;;
64894;SDS011;51588;53.702;10.208;2023-05-08T06:06:12;2.70;;;2.50;;
64894;SDS011;51588;53.702;10.208;2023-05-08T06:08:38;2.77;;;2.57;;
64894;SDS011;51588;53.702;10.208;2023-05-08T06:11:05;2.60;;;2.40;;
64894;SDS011;51588;53.702;10.208;2023-05-08T06:13:31;2.83;;;2.63;;
64894;SDS011;51588;53.702;10.208;2023-05-08T06:15:58;2.87;;;2.67;;
64894;SDS011;51588;53.702;10.208;2023-05-08T06:18:24;3.20;;;2.90;;
64894;SDS011;51588;53.702;10.208;2023-05-08T06:20:55;3.13;;;2.83;;
64894;SDS011;51588;53.702;10.208;2023-05-08T06:23:21;3.10;;;2.87;;
64894;SDS011;51588;53.702;10.208;2023-05-08T06:25:47;3.37;;;3.07;;
64894;SDS011;51588;53.702;10.208;2023-05-08T06:28:14;3.10;;;2.80;;
64894;SDS011;51588;53.702;10.208;2023-05-08T06:30:40;3.00;;;2.70;;
64894;SDS011;51588;53.702;10.208;2023-05-08T06:33:07;3.00;;;2.70;;
64894;SDS011;51588;53.702;10.208;2023-05-08T06:35:34;3.03;;;2.77;;
64894;SDS011;51588;53.702;10.208;2023-05-08T06:38:01;3.50;;;2.40;;
64894;SDS011;51588;53.702;10.208;2023-05-08T06:40:28;2.97;;;2.77;;
64894;SDS011;51588;53.702;10.208;2023-05-08T06:42:54;3.40;;;3.10;;
64894;SDS011;51588;53.702;10.208;2023-05-08T06:45:21;2.90;;;2.70;;
64894;SDS011;51588;53.702;10.208;2023-05-08T06:47:47;3.20;;;3.00;;
64894;SDS011;51588;53.702;10.208;2023-05-08T06:50:13;3.13;;;2.87;;
64894;SDS011;51588;53.702;10.208;2023-05-08T06:52:40;3.13;;;2.77;;
64894;SDS011;51588;53.702;10.208;2023-05-08T06:55:08;3.47;;;3.10;;
64894;SDS011;51588;53.702;10.208;2023-05-08T06:57:34;3.20;;;2.90;;
64894;SDS011;51588;53.702;10.208;2023-05-08T07:00:01;3.33;;;2.90;;
64894;SDS011;51588;53.702;10.208;2023-05-08T07:02:28;3.67;;;3.10;;
64894;SDS011;51588;53.702;10.208;2023-05-08T07:04:54;2.90;;;2.70;;
64894;SDS011;51588;53.702;10.208;2023-05-08T07:07:21;3.23;;;2.93;;
64894;SDS011;51588;53.702;10.208;2023-05-08T07:09:47;3.40;;;3.10;;
64894;SDS011;51588;53.702;10.208;2023-05-08T07:12:15;3.63;;;3.27;;
64894;SDS011;51588;53.702;10.208;2023-05-08T07:14:41;3.40;;;3.10;;
64894;SDS011;51588;53.702;10.208;2023-05-08T07:17:08;4.43;;;3.30;;
64894;SDS011;51588;53.702;10.208;2023-05-08T07:19:34;3.33;;;3.00;;
64894;SDS011;51588;53.702;10.208;2023-05-08T07:22:02;2.93;;;2.73;;
64894;SDS011;51588;53.702;10.208;2023-05-08T07:24:28;3.40;;;3.10;;
64894;SDS011;51588;53.702;10.208;2023-05-08T07:26:55;4.63;;;3.17;;
64894;SDS011;51588;53.702;10.208;2023-05-08T07:29:25;3.90;;;3.47;;
64894;SDS011;51588;53.702;10.208;2023-05-08T07:31:51;3.00;;;2.80;;
64894;SDS011;51588;53.702;10.208;2023-05-08T07:34:17;3.40;;;2.90;;
64894;SDS011;51588;53.702;10.208;2023-05-08T07:36:44;3.50;;;3.20;;
64894;SDS011;51588;53.702;10.208;2023-05-08T07:39:10;3.93;;;3.17;;
64894;SDS011;51588;53.702;10.208;2023-05-08T07:41:37;3.67;;;3.23;;
64894;SDS011;51588;53.702;10.208;2023-05-08T07:44:04;3.60;;;3.30;;
64894;SDS011;51588;53.702;10.208;2023-05-08T07:46:32;3.37;;;3.07;;
64894;SDS011;51588;53.702;10.208;2023-05-08T07:48:58;3.20;;;3.00;;
64894;SDS011;51588;53.702;10.208;2023-05-08T07:51:25;3.83;;;3.53;;
64894;SDS011;51588;53.702;10.208;2023-05-08T07:53:51;3.23;;;2.97;;
64894;SDS011;51588;53.702;10.208;2023-05-08T07:56:19;3.53;;;3.23;;
64894;SDS011;51588;53.702;10.208;2023-05-08T07:58:45;3.10;;;2.90;;
64894;SDS011;51588;53.702;10.208;2023-05-08T08:01:12;3.30;;;3.00;;
64894;SDS011;51588;53.702;10.208;2023-05-08T08:03:40;3.77;;;3.07;;
64894;SDS011;51588;53.702;10.208;2023-05-08T08:06:06;4.40;;;3.50;;
64894;SDS011;51588;53.702;10.208;2023-05-08T08:08:32;4.67;;;3.67;;
64894;SDS011;51588;53.702;10.208;2023-05-08T08:10:59;4.70;;;3.53;;
64894;SDS011;51588;53.702;10.208;2023-05-08T08:13:25;3.73;;;3.37;;
64894;SDS011;51588;53.702;10.208;2023-05-08T08:15:52;3.70;;;3.37;;
64894;SDS011;51588;53.702;10.208;2023-05-08T08:18:18;3.70;;;3.40;;
64894;SDS011;51588;53.702;10.208;2023-05-08T08:20:46;4.10;;;3.50;;
64894;SDS011;51588;53.702;10.208;2023-05-08T08:23:12;3.40;;;3.10;;
64894;SDS011;51588;53.702;10.208;2023-05-08T08:25:38;4.20;;;3.80;;
64894;SDS011;51588;53.702;10.208;2023-05-08T08:28:05;3.90;;;3.50;;
64894;SDS011;51588;53.702;10.208;2023-05-08T08:30:31;4.33;;;3.57;;
64894;SDS011;51588;53.702;10.208;2023-05-08T08:32:57;3.83;;;3.53;;
64894;SDS011;51588;53.702;10.208;2023-05-08T08:35:26;3.73;;;3.43;;
64894;SDS011;51588;53.702;10.208;2023-05-08T08:37:54;3.90;;;3.53;;
64894;SDS011;51588;53.702;10.208;2023-05-08T08:40:21;3.60;;;3.30;;
64894;SDS011;51588;53.702;10.208;2023-05-08T08:42:47;4.23;;;3.83;;
64894;SDS011;51588;53.702;10.208;2023-05-08T08:45:14;3.67;;;3.40;;
64894;SDS011;51588;53.702;10.208;2023-05-08T08:47:40;4.10;;;3.73;;
64894;SDS011;51588;53.702;10.208;2023-05-08T08:50:09;4.20;;;3.40;;
64894;SDS011;51588;53.702;10.208;2023-05-08T08:52:38;3.50;;;3.20;;
64894;SDS011;51588;53.702;10.208;2023-05-08T08:55:07;3.73;;;3.43;;
64894;SDS011;51588;53.702;10.208;2023-05-08T08:57:35;4.17;;;3.77;;
64894;SDS011;51588;53.702;10.208;2023-05-08T09:00:02;4.20;;;3.80;;
64894;SDS011;51588;53.702;10.208;2023-05-08T09:02:30;4.10;;;3.70;;
64894;SDS011;51588;53.702;10.208;2023-05-08T09:04:56;4.57;;;4.17;;
64894;SDS011;51588;53.702;10.208;2023-05-08T09:07:23;4.00;;;3.70;;
64894;SDS011;51588;53.702;10.208;2023-05-08T09:09:50;4.10;;;3.80;;
64894;SDS011;51588;53.702;10.208;2023-05-08T09:12:19;3.97;;;3.67;;
64894;SDS011;51588;53.702;10.208;2023-05-08T09:14:45;4.07;;;3.60;;
64894;SDS011;51588;53.702;10.208;2023-05-08T09:17:12;3.90;;;3.57;;
64894;SDS011;51588;53.702;10.208;2023-05-08T09:19:38;4.20;;;3.80;;
64894;SDS011;51588;53.702;10.208;2023-05-08T09:22:05;4.30;;;3.90;;
64894;SDS011;51588;53.702;10.208;2023-05-08T09:27:21;4.40;;;4.00;;
64894;SDS011;51588;53.702;10.208;2023-05-08T09:29:59;4.23;;;3.83;;
64894;SDS011;51588;53.702;10.208;2023-05-08T09:32:27;4.40;;;4.00;;
64894;SDS011;51588;53.702;10.208;2023-05-08T09:34:53;4.17;;;3.63;;
64894;SDS011;51588;53.702;10.208;2023-05-08T09:37:22;4.57;;;4.17;;
64894;SDS011;51588;53.702;10.208;2023-05-08T09:39:49;4.33;;;3.70;;
64894;SDS011;51588;53.702;10.208;2023-05-08T09:42:19;3.87;;;3.57;;
64894;SDS011;51588;53.702;10.208;2023-05-08T09:44:47;3.80;;;3.50;;
64894;SDS011;51588;53.702;10.208;2023-05-08T09:47:14;5.80;;;4.30;;
64894;SDS011;51588;53.702;10.208;2023-05-08T09:49:54;3.97;;;3.57;;
64894;SDS011;51588;53.702;10.208;2023-05-08T09:52:21;4.30;;;3.90;;
64894;SDS011;51588;53.702;10.208;2023-05-08T09:54:48;5.00;;;3.93;;
64894;SDS011;51588;53.702;10.208;2023-05-08T09:57:21;3.90;;;3.50;;
64894;SDS011;51588;53.702;10.208;2023-05-08T09:59:49;4.43;;;4.03;;
64894;SDS011;51588;53.702;10.208;2023-05-08T10:02:15;4.03;;;3.63;;
64894;SDS011;51588;53.702;10.208;2023-05-08T10:04:44;4.17;;;3.77;;
64894;SDS011;51588;53.702;10.208;2023-05-08T10:07:10;4.40;;;4.00;;
64894;SDS011;51588;53.702;10.208;2023-05-08T10:09:37;4.00;;;3.70;;
64894;SDS011;51588;53.702;10.208;2023-05-08T10:12:03;3.77;;;3.47;;
64894;SDS011;51588;53.702;10.208;2023-05-08T10:14:30;4.10;;;3.70;;
64894;SDS011;51588;53.702;10.208;2023-05-08T10:16:58;4.30;;;3.90;;
64894;SDS011;51588;53.702;10.208;2023-05-08T10:19:26;3.73;;;3.43;;
64894;SDS011;51588;53.702;10.208;2023-05-08T10:21:53;3.73;;;3.43;;
64894;SDS011;51588;53.702;10.208;2023-05-08T10:24:20;3.77;;;3.47;;
64894;SDS011;51588;53.702;10.208;2023-05-08T10:26:55;4.10;;;3.70;;
64894;SDS011;51588;53.702;10.208;2023-05-08T10:29:24;3.97;;;3.67;;
64894;SDS011;51588;53.702;10.208;2023-05-08T10:31:53;3.70;;;3.40;;
64894;SDS011;51588;53.702;10.208;2023-05-08T10:34:22;3.83;;;3.53;;
64894;SDS011;51588;53.702;10.208;2023-05-08T10:36:52;3.70;;;3.40;;
64894;SDS011;51588;53.702;10.208;2023-05-08T10:39:19;3.53;;;3.23;;
64894;SDS011;51588;53.702;10.208;2023-05-08T10:41:46;3.87;;;3.57;;
64894;SDS011;51588;53.702;10.208;2023-05-08T10:44:13;4.20;;;3.80;;
64894;SDS011;51588;53.702;10.208;2023-05-08T10:46:43;3.70;;;3.40;;
64894;SDS011;51588;53.702;10.208;2023-05-08T10:49:13;3.97;;;3.63;;
64894;SDS011;51588;53.702;10.208;2023-05-08T10:51:46;5.33;;;3.30;;
64894;SDS011;51588;53.702;10.208;2023-05-08T10:54:17;3.70;;;3.40;;
64894;SDS011;51588;53.702;10.208;2023-05-08T10:56:45;3.47;;;3.17;;
64894;SDS011;51588;53.702;10.208;2023-05-08T10:59:16;3.67;;;3.30;;
64894;SDS011;51588;53.702;10.208;2023-05-08T11:01:45;4.43;;;4.03;;
64894;SDS011;51588;53.702;10.208;2023-05-08T11:04:18;4.07;;;3.67;;
64894;SDS011;51588;53.702;10.208;2023-05-08T11:06:46;3.87;;;3.50;;
64894;SDS011;51588;53.702;10.208;2023-05-08T11:09:20;4.50;;;3.50;;
64894;SDS011;51588;53.702;10.208;2023-05-08T11:11:50;3.73;;;3.43;;
64894;SDS011;51588;53.702;10.208;2023-05-08T11:14:17;3.43;;;3.13;;
64894;SDS011;51588;53.702;10.208;2023-05-08T11:17:03;3.93;;;3.53;;
64894;SDS011;51588;53.702;10.208;2023-05-08T11:19:30;4.37;;;3.60;;
64894;SDS011;51588;53.702;10.208;2023-05-08T11:22:13;4.00;;;3.70;;
64894;SDS011;51588;53.702;10.208;2023-05-08T11:24:45;3.80;;;3.50;;
64894;SDS011;51588;53.702;10.208;2023-05-08T11:27:12;3.80;;;3.50;;
64894;SDS011;51588;53.702;10.208;2023-05-08T11:29:39;3.50;;;3.20;;
64894;SDS011;51588;53.702;10.208;2023-05-08T11:32:05;3.60;;;3.23;;
64894;SDS011;51588;53.702;10.208;2023-05-08T11:34:44;3.53;;;3.23;;
64894;SDS011;51588;53.702;10.208;2023-05-08T11:37:17;3.70;;;3.40;;
64894;SDS011;51588;53.702;10.208;2023-05-08T11:39:43;3.43;;;3.13;;
64894;SDS011;51588;53.702;10.208;2023-05-08T11:44:59;3.23;;;2.97;;
64894;SDS011;51588;53.702;10.208;2023-05-08T11:47:28;4.77;;;3.30;;
64894;SDS011;51588;53.702;10.208;2023-05-08T11:49:56;3.70;;;3.40;;
64894;SDS011;51588;53.702;10.208;2023-05-08T11:52:25;3.40;;;3.10;;
64894;SDS011;51588;53.702;10.208;2023-05-08T11:54:52;3.17;;;2.87;;
64894;SDS011;51588;53.702;10.208;2023-05-08T11:57:18;3.40;;;3.10;;
64894;SDS011;51588;53.702;10.208;2023-05-08T11:59:48;3.50;;;3.20;;
64894;SDS011;51588;53.702;10.208;2023-05-08T12:02:14;3.03;;;2.73;;
64894;SDS011;51588;53.702;10.208;2023-05-08T12:04:41;3.70;;;3.40;;
64894;SDS011;51588;53.702;10.208;2023-05-08T12:07:08;3.33;;;3.03;;
64894;SDS011;51588;53.702;10.208;2023-05-08T12:09:35;3.40;;;3.10;;
64894;SDS011;51588;53.702;10.208;2023-05-08T12:12:02;3.43;;;3.13;;
64894;SDS011;51588;53.702;10.208;2023-05-08T12:14:29;3.50;;;3.20;;
64894;SDS011;51588;53.702;10.208;2023-05-08T12:16:55;3.63;;;3.07;;
64894;SDS011;51588;53.702;10.208;2023-05-08T12:19:21;3.30;;;3.00;;
64894;SDS011;51588;53.702;10.208;2023-05-08T12:21:48;2.90;;;2.70;;
64894;SDS011;51588;53.702;10.208;2023-05-08T12:24:15;3.67;;;3.37;;
64894;SDS011;51588;53.702;10.208;2023-05-08T12:26:48;3.27;;;3.00;;
64894;SDS011;51588;53.702;10.208;2023-05-08T12:29:17;2.90;;;2.70;;
64894;SDS011;51588;53.702;10.208;2023-05-08T12:31:43;2.90;;;2.70;;
64894;SDS011;51588;53.702;10.208;2023-05-08T12:34:10;3.57;;;2.77;;
64894;SDS011;51588;53.702;10.208;2023-05-08T12:36:37;3.17;;;2.87;;
64894;SDS011;51588;53.702;10.208;2023-05-08T12:39:13;2.80;;;2.57;;
64894;SDS011;51588;53.702;10.208;2023-05-08T12:41:47;4.20;;;3.10;;
64894;SDS011;51588;53.702;10.208;2023-05-08T12:44:17;2.93;;;2.73;;
64894;SDS011;51588;53.702;10.208;2023-05-08T12:46:48;3.73;;;2.83;;
64894;SDS011;51588;53.702;10.208;2023-05-08T12:49:21;3.33;;;3.03;;
64894;SDS011;51588;53.702;10.208;2023-05-08T12:51:47;2.60;;;2.40;;
64894;SDS011;51588;53.702;10.208;2023-05-08T12:54:14;3.10;;;2.90;;
64894;SDS011;51588;53.702;10.208;2023-05-08T12:56:41;3.67;;;3.13;;
64894;SDS011;51588;53.702;10.208;2023-05-08T12:59:09;2.87;;;2.63;;
64894;SDS011;51588;53.702;10.208;2023-05-08T13:01:35;2.70;;;2.50;;
64894;SDS011;51588;53.702;10.208;2023-05-08T13:04:05;2.67;;;2.47;;
64894;SDS011;51588;53.702;10.208;2023-05-08T13:06:32;3.23;;;2.70;;
64894;SDS011;51588;53.702;10.208;2023-05-08T13:08:58;3.10;;;2.80;;
64894;SDS011;51588;53.702;10.208;2023-05-08T13:11:28;2.97;;;2.77;;
64894;SDS011;51588;53.702;10.208;2023-05-08T13:13:55;3.07;;;2.87;;
64894;SDS011;51588;53.702;10.208;2023-05-08T13:16:23;2.70;;;2.50;;
64894;SDS011;51588;53.702;10.208;2023-05-08T13:18:50;3.00;;;2.50;;
64894;SDS011;51588;53.702;10.208;2023-05-08T13:21:16;2.83;;;2.60;;
64894;SDS011;51588;53.702;10.208;2023-05-08T13:23:42;2.70;;;2.50;;
64894;SDS011;51588;53.702;10.208;2023-05-08T13:26:09;3.00;;;2.70;;
64894;SDS011;51588;53.702;10.208;2023-05-08T13:28:35;3.23;;;2.60;;
64894;SDS011;51588;53.702;10.208;2023-05-08T13:31:01;2.40;;;2.20;;
64894;SDS011;51588;53.702;10.208;2023-05-08T13:33:29;2.60;;;2.40;;
64894;SDS011;51588;53.702;10.208;2023-05-08T13:35:55;2.63;;;2.43;;
64894;SDS011;51588;53.702;10.208;2023-05-08T13:38:22;5.03;;;2.33;;
64894;SDS011;51588;53.702;10.208;2023-05-08T13:40:48;2.70;;;2.50;;
64894;SDS011;51588;53.702;10.208;2023-05-08T13:43:14;3.03;;;2.53;;
64894;SDS011;51588;53.702;10.208;2023-05-08T13:45:41;2.80;;;2.60;;
64894;SDS011;51588;53.702;10.208;2023-05-08T13:48:07;2.77;;;2.57;;
64894;SDS011;51588;53.702;10.208;2023-05-08T13:50:35;2.50;;;2.30;;
64894;SDS011;51588;53.702;10.208;2023-05-08T13:53:01;2.60;;;2.40;;
64894;SDS011;51588;53.702;10.208;2023-05-08T13:55:28;2.47;;;2.27;;
64894;SDS011;51588;53.702;10.208;2023-05-08T13:57:55;2.80;;;2.50;;
64894;SDS011;51588;53.702;10.208;2023-05-08T14:00:22;2.60;;;2.17;;
64894;SDS011;51588;53.702;10.208;2023-05-08T14:02:49;2.40;;;2.20;;
64894;SDS011;51588;53.702;10.208;2023-05-08T14:05:15;2.63;;;2.10;;
64894;SDS011;51588;53.702;10.208;2023-05-08T14:07:43;2.30;;;2.10;;
64894;SDS011;51588;53.702;10.208;2023-05-08T14:10:10;2.83;;;2.60;;
64894;SDS011;51588;53.702;10.208;2023-05-08T14:12:37;2.57;;;2.30;;
64894;SDS011;51588;53.702;10.208;2023-05-08T14:15:04;2.30;;;2.10;;
64894;SDS011;51588;53.702;10.208;2023-05-08T14:17:31;2.40;;;2.20;;
64894;SDS011;51588;53.702;10.208;2023-05-08T14:19:57;3.13;;;2.40;;
64894;SDS011;51588;53.702;10.208;2023-05-08T14:22:24;2.80;;;2.53;;
64894;SDS011;51588;53.702;10.208;2023-05-08T14:24:51;2.30;;;2.10;;
64894;SDS011;51588;53.702;10.208;2023-05-08T14:27:18;2.40;;;2.20;;
64894;SDS011;51588;53.702;10.208;2023-05-08T14:29:44;2.60;;;2.20;;
64894;SDS011;51588;53.702;10.208;2023-05-08T14:32:11;2.20;;;2.00;;
64894;SDS011;51588;53.702;10.208;2023-05-08T14:34:37;2.60;;;2.40;;
64894;SDS011;51588;53.702;10.208;2023-05-08T14:37:03;3.10;;;2.00;;
64894;SDS011;51588;53.702;10.208;2023-05-08T14:39:30;3.00;;;2.00;;
64894;SDS011;51588;53.702;10.208;2023-05-08T14:41:59;2.33;;;2.13;;